Time;durP1;ratioP1;P1;durP2;ratioP2;P2;SDS_P1;SDS_P2;PMS_P1;PMS_P2;Temp;Humidity;BMP_temperature;BMP_pressure;BME280_temperature;BME280_humidity;BME280_pressure;Samples;Min_cycle;Max_cycle;Signal;HPM_P1;HPM_P2
2024/04/07 00:00:19;;;;;;;4.15;2.50;;;;;;;21.75;59.98;100966.94;4970533;28;98836;-74
2024/04/07 00:02:46;;;;;;;4.55;2.67;;;;;;;21.82;59.54;100968.16;4968798;28;97117;-74
2024/04/07 00:05:11;;;;;;;4.35;3.00;;;;;;;21.65;60.23;100971.34;4971874;28;97274;-75
2024/04/07 00:07:38;;;;;;;4.80;2.83;;;;;;;21.72;60.00;100961.81;4968818;28;100869;-76
2024/04/07 00:10:05;;;;;;;10.30;2.70;;;;;;;21.76;60.04;100963.28;4972714;28;100702;-73
2024/04/07 00:12:32;;;;;;;6.72;2.40;;;;;;;21.68;60.24;100961.19;4967033;28;96797;-75
2024/04/07 00:14:57;;;;;;;5.03;2.75;;;;;;;21.74;59.84;100966.09;4968734;28;96852;-75
2024/04/07 00:17:23;;;;;;;6.97;3.00;;;;;;;21.59;60.20;100951.16;4966834;28;98955;-76
2024/04/07 00:19:49;;;;;;;6.07;2.85;;;;;;;21.59;60.31;100964.63;4967006;28;98794;-74
2024/04/07 00:22:15;;;;;;;9.85;2.80;;;;;;;21.50;60.59;100957.25;4970740;28;97033;-74
2024/04/07 00:24:41;;;;;;;5.78;2.78;;;;;;;21.61;59.87;100965.31;4971519;28;97280;-74
2024/04/07 00:27:08;;;;;;;7.38;3.00;;;;;;;21.57;60.33;100961.19;4970107;28;99069;-74
2024/04/07 00:29:34;;;;;;;6.07;3.25;;;;;;;21.51;60.42;100964.34;4971548;28;100684;-75
2024/04/07 00:32:00;;;;;;;4.05;2.78;;;;;;;21.61;60.15;100964.47;4977441;28;96968;-73
2024/04/07 00:34:26;;;;;;;6.03;3.00;;;;;;;21.52;60.47;100954.44;4973299;28;96942;-74
2024/04/07 00:36:52;;;;;;;5.72;2.65;;;;;;;21.51;60.40;100953.59;4965805;28;98767;-73
2024/04/07 00:39:18;;;;;;;7.82;3.13;;;;;;;21.25;61.36;100957.44;4962654;28;98755;-74
2024/04/07 00:41:44;;;;;;;6.90;3.42;;;;;;;21.28;61.60;100954.50;4974850;28;97566;-74
2024/04/07 00:44:11;;;;;;;5.93;3.20;;;;;;;21.15;61.81;100951.84;4969110;28;96746;-74
2024/04/07 00:46:42;;;;;;;7.88;3.20;;;;;;;21.26;61.92;100959.16;4970958;28;98991;-73
2024/04/07 00:49:07;;;;;;;4.25;3.17;;;;;;;21.25;61.85;100949.38;4964711;28;101425;-73
2024/04/07 00:51:35;;;;;;;5.78;2.80;;;;;;;21.20;62.00;100944.31;4973492;28;98533;-73
2024/04/07 00:54:01;;;;;;;8.95;3.42;;;;;;;21.01;61.68;100949.34;4971533;28;96885;-73
2024/04/07 00:56:28;;;;;;;5.07;2.92;;;;;;;20.99;61.97;100949.50;4962593;28;99057;-74
2024/04/07 00:58:54;;;;;;;5.07;2.97;;;;;;;21.10;62.02;100945.97;4967157;28;98113;-74
2024/04/07 01:01:22;;;;;;;7.63;3.15;;;;;;;21.16;61.43;100947.38;4965861;28;96863;-74
2024/04/07 01:03:47;;;;;;;5.63;2.72;;;;;;;20.96;61.80;100936.28;4957716;28;96830;-73
2024/04/07 01:06:16;;;;;;;4.85;2.90;;;;;;;21.02;61.91;100951.94;4965236;28;97690;-74
2024/04/07 01:08:42;;;;;;;3.13;2.70;;;;;;;21.02;61.97;100951.06;4969770;28;98693;-73
2024/04/07 01:11:08;;;;;;;9.13;3.63;;;;;;;20.94;61.64;100942.72;4966772;28;96790;-73
2024/04/07 01:13:34;;;;;;;4.45;2.95;;;;;;;20.93;61.38;100941.03;4966838;28;96928;-74
2024/04/07 01:16:00;;;;;;;5.32;2.92;;;;;;;21.09;60.53;100942.44;4973456;28;99382;-73
2024/04/07 01:18:27;;;;;;;4.50;2.60;;;;;;;20.79;60.99;100939.41;4965651;28;101762;-72
2024/04/07 01:20:54;;;;;;;3.65;3.08;;;;;;;20.98;60.57;100939.72;4978557;28;97137;-73
2024/04/07 01:23:21;;;;;;;5.88;3.03;;;;;;;21.00;60.49;100936.94;4970459;28;96809;-73
2024/04/07 01:25:47;;;;;;;3.55;2.90;;;;;;;20.97;60.61;100934.47;4967368;28;99390;-73
2024/04/07 01:28:13;;;;;;;4.63;3.97;;;;;;;20.91;60.77;100927.72;4974440;28;99703;-73
2024/04/07 01:30:40;;;;;;;6.85;2.90;;;;;;;21.03;60.50;100932.16;4977926;28;96888;-76
2024/04/07 01:33:06;;;;;;;7.32;3.45;;;;;;;21.13;59.90;100934.16;4980376;28;96822;-74
2024/04/07 01:35:33;;;;;;;5.50;3.00;;;;;;;20.87;60.82;100926.22;4972753;28;98913;-72
2024/04/07 01:37:58;;;;;;;3.90;2.75;;;;;;;21.00;60.31;100927.00;4976684;28;97879;-74
2024/04/07 01:40:26;;;;;;;3.42;2.72;;;;;;;20.95;60.21;100929.19;4974771;28;97376;-73
2024/04/07 01:42:51;;;;;;;4.72;2.85;;;;;;;20.92;59.86;100917.84;4976444;28;98390;-74
2024/04/07 01:45:20;;;;;;;9.45;2.95;;;;;;;20.83;59.82;100914.00;4964541;28;98989;-73
2024/04/07 01:47:45;;;;;;;4.22;2.97;;;;;;;21.11;59.51;100907.41;4972528;28;99542;-73
2024/04/07 01:50:12;;;;;;;3.97;2.60;;;;;;;20.80;60.03;100914.25;4968875;28;97305;-73
2024/04/07 01:52:38;;;;;;;3.60;2.65;;;;;;;20.87;60.24;100907.41;4973904;28;96786;-73
2024/04/07 01:55:05;;;;;;;4.68;2.78;;;;;;;20.88;59.78;100898.41;4964960;28;97654;-71
2024/04/07 01:57:32;;;;;;;5.53;2.72;;;;;;;20.98;59.41;100895.88;4967435;28;98757;-72
2024/04/07 01:59:58;;;;;;;4.10;2.72;;;;;;;20.78;59.87;100888.47;4972594;28;96819;-73
2024/04/07 02:02:24;;;;;;;3.53;2.75;;;;;;;20.77;59.79;100898.38;4970636;28;97203;-72
2024/04/07 02:04:50;;;;;;;;;;;;;;;20.69;60.18;100895.38;4969503;28;98981;-73
2024/04/07 02:07:17;;;;;;;5.68;3.05;;;;;;;20.80;59.75;100890.09;4971307;28;98843;-73
2024/04/07 02:09:43;;;;;;;4.30;2.33;;;;;;;20.93;59.18;100890.88;4973319;28;96797;-72
2024/04/07 02:12:09;;;;;;;11.88;3.20;;;;;;;21.04;58.79;100890.91;4965858;28;98538;-73
2024/04/07 02:14:37;;;;;;;3.45;2.70;;;;;;;20.83;58.82;100884.47;4966184;28;98919;-73
2024/04/07 02:17:03;;;;;;;3.35;2.45;;;;;;;20.74;58.90;100871.75;4965663;28;99265;-72
2024/04/07 02:19:29;;;;;;;6.80;2.50;;;;;;;20.68;58.70;100877.56;4971840;28;96961;-72
2024/04/07 02:21:55;;;;;;;7.32;3.05;;;;;;;20.59;59.42;100878.28;4963227;28;96813;-72
2024/04/07 02:24:21;;;;;;;8.75;2.90;;;;;;;20.65;58.97;100883.19;4962424;28;97719;-72
2024/04/07 02:26:47;;;;;;;3.58;2.60;;;;;;;20.77;58.40;100876.88;4962351;28;101890;-71
2024/04/07 02:29:13;;;;;;;5.70;2.95;;;;;;;20.68;58.77;100877.56;4964511;28;96800;-73
2024/04/07 02:31:40;;;;;;;6.07;2.88;;;;;;;20.41;59.25;100874.28;4961122;28;97261;-72
2024/04/07 02:34:08;;;;;;;5.32;2.63;;;;;;;20.60;59.16;100875.47;4972900;28;99254;-72
2024/04/07 02:36:34;;;;;;;4.88;2.80;;;;;;;20.56;59.06;100879.34;4965037;28;99206;-72
2024/04/07 02:39:00;;;;;;;7.78;3.28;;;;;;;20.96;57.62;100885.25;4956158;28;96933;-72
2024/04/07 02:41:26;;;;;;;5.80;2.78;;;;;;;20.62;58.75;100878.88;4959867;28;97178;-71
2024/04/07 02:43:52;;;;;;;;;;;;;;;20.78;57.48;100878.59;4975708;28;98271;-71
2024/04/07 02:49:04;;;;;;;5.03;2.60;;;;;;;20.73;57.77;100874.56;4964873;28;96819;-73
2024/04/07 02:51:30;;;;;;;5.63;2.78;;;;;;;20.65;57.53;100875.97;4974472;28;97220;-74
2024/04/07 02:53:56;;;;;;;4.25;2.60;;;;;;;20.72;57.86;100881.75;4970862;28;99008;-74
2024/04/07 02:56:22;;;;;;;3.95;2.83;;;;;;;20.72;57.75;100884.44;4969470;28;99400;-73
2024/04/07 02:58:48;;;;;;;7.38;3.20;;;;;;;20.54;58.07;100875.09;4963707;28;96870;-74
2024/04/07 03:01:13;;;;;;;4.05;2.72;;;;;;;20.50;58.10;100869.06;4971699;28;96811;-74
2024/04/07 03:03:40;;;;;;;;;;;;;;;20.39;58.44;100876.22;4972782;28;101887;-73
2024/04/07 03:06:08;;;;;;;3.97;2.95;;;;;;;20.52;57.90;100875.19;4971857;28;98064;-73
2024/04/07 03:08:35;;;;;;;4.32;2.50;;;;;;;20.50;58.36;100871.75;4973858;28;96801;-73
2024/04/07 03:11:01;;;;;;;4.25;3.25;;;;;;;20.46;57.79;100869.44;4974180;28;97029;-73
2024/04/07 03:13:28;;;;;;;4.22;2.90;;;;;;;20.55;57.46;100866.88;4971910;28;98931;-73
2024/04/07 03:15:54;;;;;;;8.18;2.85;;;;;;;20.60;57.40;100870.09;4967551;28;98835;-73
2024/04/07 03:18:20;;;;;;;;;;;;;;;20.54;57.09;100869.72;4970736;28;97842;-73
2024/04/07 03:20:46;;;;;;;4.00;2.97;;;;;;;20.46;57.41;100872.09;4963356;28;97834;-72
2024/04/07 03:23:14;;;;;;;5.88;2.90;;;;;;;20.51;57.11;100865.41;4971070;28;99044;-72
2024/04/07 03:25:40;;;;;;;9.05;3.20;;;;;;;20.40;57.22;100864.50;4970235;28;102095;-72
2024/04/07 03:28:06;;;;;;;;;;;;;;;20.32;57.70;100858.81;4966266;28;96831;-73
2024/04/07 03:30:32;;;;;;;3.75;3.00;;;;;;;20.44;57.16;100864.16;4964071;28;97001;-72
2024/04/07 03:32:59;;;;;;;7.05;3.10;;;;;;;20.35;57.63;100869.38;4965357;28;99395;-73
2024/04/07 03:35:24;;;;;;;7.40;2.95;;;;;;;20.22;57.66;100864.84;4962526;28;99138;-73
2024/04/07 03:37:51;;;;;;;;;;;;;;;20.15;57.69;100871.63;4972650;28;96685;-73
2024/04/07 03:40:18;;;;;;;3.47;2.92;;;;;;;20.30;57.54;100873.19;4971084;28;99524;-73
2024/04/07 03:42:45;;;;;;;5.43;3.10;;;;;;;20.04;58.31;100876.09;4964216;28;99255;-73
2024/04/07 03:45:11;;;;;;;6.28;3.65;;;;;;;20.00;58.38;100864.72;4964906;28;99055;-73
2024/04/07 03:47:37;;;;;;;8.57;3.22;;;;;;;20.15;58.05;100873.50;4958874;28;98096;-73
2024/04/07 03:50:05;;;;;;;5.65;2.85;;;;;;;20.06;58.30;100875.00;4970358;28;96919;-72
2024/04/07 03:52:31;;;;;;;4.93;3.28;;;;;;;20.15;57.92;100873.50;4969148;28;98938;-73
2024/04/07 03:54:57;;;;;;;4.45;2.92;;;;;;;19.93;58.57;100868.81;4969186;28;100361;-72
2024/04/07 03:57:24;;;;;;;;;;;;;;;20.09;57.75;100872.09;4969953;28;96736;-71
2024/04/07 03:59:50;;;;;;;;;;;;;;;20.07;58.11;100866.00;4967324;28;96932;-72
2024/04/07 04:02:21;;;;;;;4.82;3.60;;;;;;;20.01;58.17;100865.59;4960757;28;99199;-71
2024/04/07 04:04:54;;;;;;;6.28;3.22;;;;;;;19.97;57.99;100872.13;4969809;28;100523;-73
2024/04/07 04:07:21;;;;;;;8.38;3.08;;;;;;;20.05;57.86;100865.25;4970679;28;96840;-72
2024/04/07 04:09:46;;;;;;;3.95;2.72;;;;;;;19.83;58.31;100862.41;4967369;28;96861;-74
2024/04/07 04:12:12;;;;;;;;;;;;;;;19.99;58.11;100862.16;4965987;28;100365;-73
2024/04/07 04:14:39;;;;;;;5.88;3.22;;;;;;;19.83;58.25;100857.88;4968724;28;98777;-74
2024/04/07 04:17:06;;;;;;;6.38;3.03;;;;;;;19.92;58.18;100856.38;4963308;28;96944;-74
2024/04/07 04:19:31;;;;;;;6.65;3.20;;;;;;;19.73;58.41;100858.69;4967131;28;98366;-75
2024/04/07 04:21:57;;;;;;;;;;;;;;;19.94;58.13;100861.63;4966212;28;99942;-74
2024/04/07 04:24:23;;;;;;;6.38;3.08;;;;;;;19.93;57.59;100860.78;4971174;28;100522;-75
2024/04/07 04:26:50;;;;;;;;;;;;;;;19.92;57.28;100852.84;4963028;28;96859;-74
2024/04/07 04:29:15;;;;;;;4.95;3.40;;;;;;;19.86;57.61;100844.28;4965823;28;96824;-74
2024/04/07 04:31:43;;;;;;;;;;;;;;;19.87;57.62;100847.81;4967608;28;99335;-73
2024/04/07 04:34:08;;;;;;;;;;;;;;;19.93;57.53;100841.16;4958795;28;102763;-73
2024/04/07 04:36:34;;;;;;;7.53;3.03;;;;;;;19.90;57.80;100842.22;4963519;28;96921;-74
2024/04/07 04:39:00;;;;;;;6.00;3.22;;;;;;;19.74;58.00;100841.63;4969907;28;96862;-74
2024/04/07 04:41:26;;;;;;;;;;;;;;;19.90;56.90;100840.41;4968276;28;99030;-73
2024/04/07 04:43:51;;;;;;;5.03;3.22;;;;;;;19.93;56.85;100831.28;4972162;28;98798;-72
2024/04/07 04:46:18;;;;;;;;;;;;;;;19.83;57.30;100832.91;4970902;28;97152;-73
2024/04/07 04:48:45;;;;;;;4.72;3.03;;;;;;;19.92;56.94;100829.56;4966184;28;96784;-72
2024/04/07 04:51:11;;;;;;;6.63;3.58;;;;;;;19.73;56.95;100829.19;4964340;28;99070;-72
2024/04/07 04:53:37;;;;;;;6.45;2.92;;;;;;;19.82;56.98;100825.84;4963504;28;98073;-72
2024/04/07 04:56:04;;;;;;;;;;;;;;;19.63;57.46;100826.28;4970969;28;96721;-72
2024/04/07 04:58:30;;;;;;;5.85;3.33;;;;;;;19.61;57.08;100830.06;4965530;28;96953;-73
2024/04/07 05:00:56;;;;;;;4.25;3.22;;;;;;;19.63;57.00;100817.41;4970618;28;102534;-72
2024/04/07 05:03:23;;;;;;;8.13;2.80;;;;;;;19.70;56.73;100819.53;4970223;28;99085;-74
2024/04/07 05:05:51;;;;;;;4.43;3.30;;;;;;;19.76;56.50;100824.44;4961577;28;96826;-74
2024/04/07 05:08:16;;;;;;;6.90;3.28;;;;;;;19.75;56.20;100824.56;4967635;28;96939;-74
2024/04/07 05:10:42;;;;;;;;;;;;;;;19.89;55.99;100824.41;4973216;28;99014;-74
2024/04/07 05:13:08;;;;;;;5.43;3.03;;;;;;;20.08;55.06;100830.16;4972754;28;97199;-73
2024/04/07 05:15:34;;;;;;;;;;;;;;;20.07;54.63;100817.72;4970066;28;96833;-74
2024/04/07 05:17:59;;;;;;;6.13;3.30;;;;;;;20.16;54.50;100819.69;4975617;28;96949;-74
2024/04/07 05:20:26;;;;;;;;;;;;;;;20.13;54.02;100819.09;4975052;28;102937;-72
2024/04/07 05:22:53;;;;;;;6.37;2.83;;;;;;;19.92;54.20;100820.66;4972731;28;99480;-73
2024/04/07 05:25:19;;;;;;;5.22;2.85;;;;;;;19.81;54.52;100824.13;4969385;28;96856;-73
2024/04/07 05:27:45;;;;;;;5.10;2.75;;;;;;;19.91;54.60;100819.78;4969314;28;97375;-72
2024/04/07 05:30:13;;;;;;;;;;;;;;;19.85;54.17;100823.78;4975304;28;101345;-74
2024/04/07 05:32:38;;;;;;;9.35;3.22;;;;;;;19.95;53.84;100815.94;4965141;28;101458;-72
2024/04/07 05:35:05;;;;;;;;;;;;;;;19.99;53.41;100820.09;4968797;28;97757;-73
2024/04/07 05:37:31;;;;;;;5.35;2.85;;;;;;;19.95;53.36;100821.31;4969957;28;96851;-72
2024/04/07 05:39:59;;;;;;;;;;;;;;;20.05;53.10;100814.28;4969013;28;97561;-73
2024/04/07 05:42:24;;;;;;;4.82;3.13;;;;;;;20.14;53.14;100828.84;4963161;28;97483;-73
2024/04/07 05:44:51;;;;;;;;;;;;;;;20.37;52.24;100836.06;4974283;28;97776;-73
2024/04/07 05:47:16;;;;;;;6.20;2.88;;;;;;;20.39;51.88;100838.66;4966160;28;98025;-71
2024/04/07 05:49:42;;;;;;;;;;;;;;;20.58;51.22;100855.06;4974673;28;101200;-72
2024/04/07 05:52:08;;;;;;;5.57;2.75;;;;;;;20.78;51.01;100867.00;4972598;28;101515;-72
2024/04/07 05:54:34;;;;;;;;;;;;;;;21.19;49.50;100877.28;4968017;28;97126;-72
2024/04/07 05:57:01;;;;;;;3.75;2.50;;;;;;;21.24;49.37;100892.06;4972360;28;96799;-72
2024/04/07 05:59:27;;;;;;;4.63;2.72;;;;;;;21.41;48.61;100880.84;4971366;28;97791;-71
2024/04/07 06:01:53;;;;;;;4.32;2.38;;;;;;;21.44;47.94;100890.53;4973641;28;99646;-70
2024/04/07 06:04:19;;;;;;;4.88;2.85;;;;;;;21.67;47.28;100899.44;4966024;28;100108;-71
2024/04/07 06:06:47;;;;;;;6.18;2.35;;;;;;;21.90;47.08;100905.69;4962677;28;97164;-71
2024/04/07 06:09:14;;;;;;;5.53;3.50;;;;;;;22.31;45.77;100903.25;4969811;28;98884;-70
2024/04/07 06:11:40;;;;;;;4.32;2.40;;;;;;;22.43;45.62;100907.63;4972955;28;98993;-71
2024/04/07 06:14:08;;;;;;;6.75;2.70;;;;;;;22.49;44.60;100925.97;4965529;28;97335;-71
2024/04/07 06:16:33;;;;;;;5.53;2.47;;;;;;;22.87;44.00;100935.41;4970777;28;96982;-71
2024/04/07 06:18:59;;;;;;;5.90;2.42;;;;;;;22.56;43.34;100942.47;4963853;28;98951;-71
2024/04/07 06:21:25;;;;;;;8.18;2.83;;;;;;;22.72;43.80;100947.41;4970286;28;98651;-71
2024/04/07 06:23:51;;;;;;;3.58;2.20;;;;;;;22.77;43.96;100951.50;4971766;28;96803;-74
2024/04/07 06:26:16;;;;;;;5.47;2.45;;;;;;;22.97;43.12;100939.88;4972856;28;98081;-73
2024/04/07 06:28:43;;;;;;;3.17;2.50;;;;;;;23.16;41.99;100947.28;4962389;28;98981;-72
2024/04/07 06:31:09;;;;;;;3.45;2.28;;;;;;;23.33;41.99;100948.53;4972622;28;98860;-74
2024/04/07 06:33:37;;;;;;;7.15;2.83;;;;;;;23.57;41.04;100972.56;4967335;28;96802;-73
2024/04/07 06:36:03;;;;;;;6.30;2.30;;;;;;;23.55;40.28;100959.22;4959640;28;96970;-73
2024/04/07 06:38:29;;;;;;;3.20;2.30;;;;;;;23.63;40.00;100953.19;4970410;28;98973;-73
2024/04/07 06:40:55;;;;;;;5.22;2.80;;;;;;;23.44;40.24;100943.06;4963656;28;99320;-73
2024/04/07 06:43:21;;;;;;;4.80;2.08;;;;;;;23.60;39.48;100943.50;4959468;28;96741;-73
2024/04/07 06:45:47;;;;;;;3.05;2.22;;;;;;;23.59;39.07;100944.47;4966782;28;97389;-75
2024/04/07 06:48:14;;;;;;;6.03;2.40;;;;;;;23.58;38.80;100941.91;4972256;28;101684;-75
2024/04/07 06:50:39;;;;;;;3.55;1.90;;;;;;;23.47;39.02;100955.44;4969254;28;98948;-72
2024/04/07 06:53:06;;;;;;;4.65;2.15;;;;;;;23.69;38.78;100956.19;4969186;28;97456;-74
2024/04/07 06:55:31;;;;;;;5.20;2.38;;;;;;;23.71;38.98;100953.34;4971677;28;98201;-72
2024/04/07 06:57:57;;;;;;;2.40;2.00;;;;;;;23.94;38.09;100954.91;4972351;28;101787;-74
2024/04/07 07:00:23;;;;;;;5.35;2.53;;;;;;;23.96;37.82;100958.31;4971063;28;99163;-73
2024/04/07 07:02:49;;;;;;;3.22;2.17;;;;;;;24.11;37.12;100962.34;4972041;28;96846;-73
2024/04/07 07:05:16;;;;;;;5.43;1.92;;;;;;;24.08;37.38;100973.44;4968478;28;100373;-73
2024/04/07 07:07:42;;;;;;;3.03;2.03;;;;;;;24.26;37.53;100970.13;4972992;28;99065;-73
2024/04/07 07:10:09;;;;;;;2.03;1.90;;;;;;;24.08;37.29;100964.47;4968178;28;98751;-73
2024/04/07 07:12:35;;;;;;;4.38;1.67;;;;;;;24.06;36.64;100970.00;4968292;28;97104;-72
2024/04/07 07:15:00;;;;;;;2.03;1.77;;;;;;;24.22;36.52;100981.19;4966551;28;96980;-72
2024/04/07 07:17:27;;;;;;;4.97;1.92;;;;;;;24.18;36.67;100981.56;4972360;28;98925;-72
2024/04/07 07:19:54;;;;;;;2.50;1.80;;;;;;;24.34;36.97;100983.78;4965763;28;99269;-73
2024/04/07 07:22:21;;;;;;;4.63;1.88;;;;;;;24.07;37.41;100998.72;4971446;28;96857;-73
2024/04/07 07:24:47;;;;;;;3.53;2.00;;;;;;;24.40;37.34;100994.03;4967530;28;97901;-77
2024/04/07 07:27:14;;;;;;;5.65;1.83;;;;;;;24.81;36.75;101001.13;4969463;28;99007;-75
2024/04/07 07:29:40;;;;;;;3.67;1.75;;;;;;;25.06;36.20;101005.16;4972912;28;98025;-75
2024/04/07 07:32:07;;;;;;;3.80;2.00;;;;;;;25.04;35.28;101005.31;4971305;28;96878;-75
2024/04/07 07:34:34;;;;;;;4.05;1.77;;;;;;;25.00;36.06;101010.16;4964684;28;97373;-75
2024/04/07 07:37:00;;;;;;;5.10;1.77;;;;;;;24.87;35.56;101006.81;4971224;28;98279;-75
2024/04/07 07:39:27;;;;;;;5.30;1.60;;;;;;;24.88;35.62;101007.66;4969941;28;99364;-76
2024/04/07 07:41:53;;;;;;;1.80;1.50;;;;;;;25.02;35.80;101013.53;4970936;28;98633;-76
2024/04/07 07:44:19;;;;;;;5.47;1.70;;;;;;;24.94;35.10;101021.50;4972027;28;99307;-74
2024/04/07 07:46:45;;;;;;;5.05;1.80;;;;;;;25.03;35.16;101022.50;4972241;28;99062;-76
2024/04/07 07:49:11;;;;;;;2.88;1.40;;;;;;;25.46;35.06;101029.38;4968587;28;100752;-76
2024/04/07 07:51:37;;;;;;;4.80;1.27;;;;;;;25.48;34.10;101040.88;4973079;28;97960;-77
2024/04/07 07:54:04;;;;;;;2.92;1.45;;;;;;;25.16;34.49;101033.91;4967331;28;97177;-78
2024/04/07 07:56:31;;;;;;;3.55;1.77;;;;;;;25.34;34.63;101034.91;4969980;28;99001;-74
2024/04/07 07:58:57;;;;;;;4.25;1.30;;;;;;;25.38;34.02;101035.50;4968924;28;102096;-73
2024/04/07 08:01:23;;;;;;;2.58;1.30;;;;;;;25.43;34.95;101041.31;4967069;28;96918;-74
2024/04/07 08:03:50;;;;;;;3.20;1.67;;;;;;;25.58;34.62;101048.03;4967549;28;97716;-74
2024/04/07 08:06:15;;;;;;;6.10;1.60;;;;;;;25.61;34.46;101052.31;4971406;28;98622;-73
2024/04/07 08:08:42;;;;;;;3.08;1.40;;;;;;;25.72;34.41;101058.44;4967064;28;98567;-73
2024/04/07 08:11:08;;;;;;;2.03;1.42;;;;;;;25.76;34.54;101059.84;4969079;28;96793;-74
2024/04/07 08:13:35;;;;;;;4.82;1.60;;;;;;;25.91;34.34;101062.09;4971552;28;96898;-73
2024/04/07 08:16:02;;;;;;;7.22;1.60;;;;;;;25.89;33.80;101066.81;4962471;28;102011;-73
2024/04/07 08:18:30;;;;;;;2.47;1.55;;;;;;;26.30;33.52;101071.88;4969537;28;99099;-74
2024/04/07 08:20:57;;;;;;;4.85;1.45;;;;;;;26.14;33.64;101074.28;4969264;28;96787;-75
2024/04/07 08:23:23;;;;;;;4.70;1.50;;;;;;;26.54;32.99;101068.63;4969150;28;97224;-75
2024/04/07 08:25:49;;;;;;;4.80;1.40;;;;;;;26.81;31.86;101078.63;4971861;28;98308;-75
2024/04/07 08:28:16;;;;;;;3.40;1.38;;;;;;;26.27;31.64;101076.72;4974382;28;98877;-73
2024/04/07 08:30:43;;;;;;;4.30;2.38;;;;;;;26.28;31.67;101087.41;4971903;28;96951;-75
2024/04/07 08:33:09;;;;;;;8.40;3.00;;;;;;;26.46;31.09;101091.03;4975811;28;96886;-73
2024/04/07 08:35:35;;;;;;;4.47;1.67;;;;;;;26.24;31.00;101088.72;4968419;28;98300;-72
2024/04/07 08:38:05;;;;;;;4.75;1.50;;;;;;;25.73;31.41;101089.88;4974665;28;99331;-74
2024/04/07 08:40:30;;;;;;;5.03;1.20;;;;;;;25.80;31.69;101095.59;4972928;28;96984;-73
2024/04/07 08:42:57;;;;;;;6.03;1.40;;;;;;;25.91;31.40;101102.72;4969450;28;97256;-73
2024/04/07 08:45:26;;;;;;;7.57;1.77;;;;;;;25.18;32.40;101104.94;4967743;28;98900;-74
2024/04/07 08:47:55;;;;;;;7.38;1.65;;;;;;;25.45;32.68;101098.84;4973157;28;99848;-73
2024/04/07 08:50:21;;;;;;;5.57;1.45;;;;;;;25.70;31.64;101105.56;4974701;28;97109;-74
2024/04/07 08:52:48;;;;;;;2.75;1.27;;;;;;;25.75;32.19;101109.56;4964449;28;96853;-73
2024/04/07 08:55:14;;;;;;;3.33;1.50;;;;;;;25.91;32.40;101119.81;4972415;28;98889;-73
2024/04/07 08:57:42;;;;;;;9.98;1.40;;;;;;;26.54;31.54;101117.41;4969274;28;99901;-73
2024/04/07 09:00:09;;;;;;;4.90;1.45;;;;;;;27.06;30.75;101124.03;4968015;28;97218;-74
2024/04/07 09:02:37;;;;;;;2.67;1.45;;;;;;;27.19;30.35;101126.38;4971331;28;96844;-73
2024/04/07 09:05:04;;;;;;;5.28;1.70;;;;;;;26.73;31.25;101127.31;4960628;28;101216;-73
2024/04/07 09:07:31;;;;;;;5.28;1.42;;;;;;;27.32;30.32;101130.44;4972772;28;98819;-74
2024/04/07 09:09:56;;;;;;;4.45;1.30;;;;;;;27.37;30.23;101135.44;4967066;28;96774;-74
2024/04/07 09:12:23;;;;;;;5.63;1.65;;;;;;;27.13;30.87;101140.56;4969059;28;97362;-74
2024/04/07 09:14:49;;;;;;;5.97;2.00;;;;;;;27.11;30.90;101140.69;4962886;28;100043;-73
2024/04/07 09:17:15;;;;;;;5.20;1.60;;;;;;;27.12;31.20;101139.69;4966699;28;97791;-74
2024/04/07 09:19:41;;;;;;;9.82;3.40;;;;;;;27.78;30.14;101152.97;4974127;28;96883;-73
2024/04/07 09:22:09;;;;;;;4.80;1.90;;;;;;;28.01;30.08;101148.78;4969367;28;97133;-74
2024/04/07 09:24:37;;;;;;;4.90;1.50;;;;;;;27.99;30.08;101144.50;4972692;28;99234;-73
2024/04/07 09:27:06;;;;;;;8.85;1.55;;;;;;;28.23;29.28;101142.00;4971283;28;99555;-73
2024/04/07 09:29:33;;;;;;;4.65;1.70;;;;;;;27.66;29.84;101146.94;4968199;28;96891;-73
2024/04/07 09:32:00;;;;;;;4.57;1.50;;;;;;;27.74;29.88;101146.16;4972434;28;96842;-73
2024/04/07 09:34:26;;;;;;;5.22;1.65;;;;;;;27.77;29.91;101146.69;4964971;28;99212;-73
2024/04/07 09:36:54;;;;;;;8.10;1.70;;;;;;;27.66;30.09;101151.50;4970080;28;99082;-73
2024/04/07 09:39:23;;;;;;;3.35;1.40;;;;;;;27.02;30.62;101151.63;4965357;28;96746;-74
2024/04/07 09:41:54;;;;;;;5.57;1.40;;;;;;;26.72;31.38;101144.56;4967590;28;96940;-73
2024/04/07 09:44:20;;;;;;;5.00;1.20;;;;;;;27.19;30.71;101156.22;4970303;28;99260;-74
2024/04/07 09:46:48;;;;;;;2.85;1.27;;;;;;;26.90;31.09;101159.09;4970003;28;97583;-75
2024/04/07 09:49:14;;;;;;;5.97;1.80;;;;;;;26.75;31.37;101160.56;4974808;28;96838;-74
2024/04/07 09:51:43;;;;;;;5.50;1.60;;;;;;;27.02;31.25;101166.03;4971656;28;99391;-74
2024/04/07 09:54:19;;;;;;;4.07;1.58;;;;;;;27.03;31.22;101165.03;4964391;28;101210;-75
2024/04/07 09:56:50;;;;;;;5.45;2.15;;;;;;;26.44;32.12;101174.34;4973453;28;99325;-74
2024/04/07 09:59:19;;;;;;;6.82;2.92;;;;;;;26.03;32.94;101161.97;4960571;28;98672;-74
2024/04/07 10:01:50;;;;;;;7.03;2.03;;;;;;;26.56;32.55;101159.63;4972691;28;96837;-74
2024/04/07 10:04:16;;;;;;;7.65;1.50;;;;;;;26.41;32.55;101171.91;4972216;28;98943;-74
2024/04/07 10:06:43;;;;;;;7.45;1.40;;;;;;;26.59;32.60;101181.00;4963592;28;99117;-75
2024/04/07 10:09:09;;;;;;;3.20;1.42;;;;;;;26.86;31.98;101187.47;4968034;28;96802;-73
2024/04/07 10:11:49;;;;;;;6.28;1.90;;;;;;;26.45;32.48;101183.34;4970161;28;96988;-74
2024/04/07 10:14:17;;;;;;;6.75;1.63;;;;;;;26.92;32.22;101184.19;4972147;28;98355;-74
2024/04/07 10:16:44;;;;;;;4.05;1.55;;;;;;;26.72;32.63;101190.66;4965848;28;99597;-75
2024/04/07 10:19:10;;;;;;;7.45;1.60;;;;;;;26.97;32.40;101195.47;4971869;28;97032;-75
2024/04/07 10:21:36;;;;;;;6.10;1.48;;;;;;;26.90;32.50;101192.50;4972481;28;96831;-72
2024/04/07 10:24:02;;;;;;;6.10;1.35;;;;;;;26.93;32.38;101202.16;4971398;28;99062;-74
2024/04/07 10:26:29;;;;;;;5.28;1.88;;;;;;;26.90;32.61;101200.63;4970168;28;99031;-74
2024/04/07 10:28:56;;;;;;;5.53;1.30;;;;;;;27.07;31.82;101204.41;4965849;28;98686;-74
2024/04/07 10:31:25;;;;;;;5.13;1.55;;;;;;;27.31;32.27;101201.97;4966657;28;98693;-73
2024/04/07 10:33:53;;;;;;;5.18;1.85;;;;;;;27.29;32.34;101214.88;4965790;28;99401;-75
2024/04/07 10:36:21;;;;;;;4.00;1.60;;;;;;;26.69;33.17;101213.50;4967075;28;100627;-74
2024/04/07 10:38:49;;;;;;;4.55;1.52;;;;;;;26.33;33.95;101217.00;4970448;28;97063;-73
2024/04/07 10:41:18;;;;;;;3.75;1.90;;;;;;;26.12;34.76;101226.09;4965326;28;97268;-74
2024/04/07 10:43:44;;;;;;;7.00;2.15;;;;;;;26.33;33.98;101217.84;4971342;28;98268;-75
2024/04/07 10:46:14;;;;;;;5.45;1.73;;;;;;;26.12;34.42;101217.97;4969868;28;99810;-74
2024/04/07 10:48:44;;;;;;;7.10;1.92;;;;;;;26.51;34.12;101237.81;4971054;28;96823;-75
2024/04/07 10:51:12;;;;;;;6.10;2.20;;;;;;;26.62;34.17;101230.50;4969460;28;97412;-73
2024/04/07 10:53:39;;;;;;;5.40;2.00;;;;;;;26.90;33.66;101238.59;4971082;28;98894;-74
2024/04/07 10:56:06;;;;;;;8.10;1.80;;;;;;;26.89;33.22;101238.72;4967724;28;99178;-74
2024/04/07 10:58:33;;;;;;;3.83;1.88;;;;;;;27.25;32.90;101237.00;4973819;28;96759;-74
2024/04/07 11:01:00;;;;;;;4.20;2.58;;;;;;;27.24;32.89;101240.75;4967094;28;97921;-74
2024/04/07 11:03:26;;;;;;;8.27;3.20;;;;;;;26.78;33.72;101233.47;4965455;28;98356;-74
2024/04/07 11:05:55;;;;;;;9.10;2.65;;;;;;;26.62;33.92;101235.91;4963023;28;101476;-74
2024/04/07 11:08:22;;;;;;;6.82;2.22;;;;;;;26.98;34.03;101237.81;4974120;28;97357;-73
2024/04/07 11:10:51;;;;;;;5.45;2.42;;;;;;;27.21;33.12;101241.88;4972275;28;97014;-74
2024/04/07 11:13:17;;;;;;;8.63;1.58;;;;;;;27.08;33.46;101243.22;4967329;28;101150;-74
2024/04/07 11:15:45;;;;;;;8.88;1.67;;;;;;;27.43;33.38;101246.06;4962139;28;98823;-73
2024/04/07 11:18:14;;;;;;;5.28;1.58;;;;;;;27.74;32.85;101238.47;4973900;28;96807;-74
2024/04/07 11:20:41;;;;;;;4.65;1.60;;;;;;;28.04;32.75;101246.25;4971048;28;96712;-74
2024/04/07 11:23:09;;;;;;;4.13;1.73;;;;;;;28.10;32.06;101258.34;4965873;28;98430;-74
2024/04/07 11:25:36;;;;;;;6.45;3.45;;;;;;;27.88;32.43;101254.25;4966198;28;97756;-74
2024/04/07 11:28:02;;;;;;;8.15;1.77;;;;;;;28.29;32.03;101260.94;4969138;28;97082;-74